Terminal Aerodrome Forecast
Issued by NWS

Home | Current Version | Previous Version | Graphics & Text | Print | Product List | Glossary On
Versions: 1 2 3 4 5 6 7 8 9 10 11 12 13
000
FTUS45 KGGW 242300
TAFSDY
TAF
KSDY 242326Z 2500/2524 25012KT P6SM VCSH SCT025 BKN035
      TEMPO 2500/2503 5SM -SHRA OVC025
     FM250300 29019KT P6SM VCSH OVC025
      TEMPO 2503/2506 5SM -SHRA OVC015
     FM251500 31015KT P6SM BKN025
     FM251800 31009KT P6SM BKN050
      AMD LTD TO CLD VIS AND WIND=

USA.gov is the U.S. government's official web portal to all federal, state and local government web resources and services.